Time;durP1;ratioP1;P1;durP2;ratioP2;P2;SDS_P1;SDS_P2;PMS_P1;PMS_P2;Temp;Humidity;BMP_temperature;BMP_pressure;BME280_temperature;BME280_humidity;BME280_pressure;Samples;Min_cycle;Max_cycle;Signal;HPM_P1;HPM_P2
2021/10/21 00:00:00;;;;;;;13.73;2.80;;;16.50;87.50;;;;;;5119810;27;20035;-76
2021/10/21 00:02:25;;;;;;;13.77;2.08;;;16.40;87.50;;;;;;5129601;27;20035;-76
2021/10/21 00:04:51;;;;;;;10.20;1.90;;;16.40;87.50;;;;;;5116330;27;20033;-76
2021/10/21 00:07:17;;;;;;;10.70;2.20;;;16.40;87.50;;;;;;5122033;27;20118;-76
2021/10/21 00:09:42;;;;;;;11.43;2.00;;;16.40;87.40;;;;;;5114862;27;20023;-75
2021/10/21 00:12:08;;;;;;;9.68;2.30;;;16.40;87.30;;;;;;5116177;27;20371;-75
2021/10/21 00:14:35;;;;;;;12.85;2.50;;;16.40;87.30;;;;;;5113756;27;20039;-76
2021/10/21 00:17:01;;;;;;;13.80;2.83;;;16.40;87.40;;;;;;5117988;27;20012;-75
2021/10/21 00:19:28;;;;;;;20.50;2.58;;;16.40;87.50;;;;;;5112201;27;20043;-75
2021/10/21 00:21:54;;;;;;;14.07;2.70;;;16.40;87.70;;;;;;5110095;27;20071;-75
2021/10/21 00:24:20;;;;;;;13.73;2.55;;;16.40;87.90;;;;;;5116587;27;20111;-76
2021/10/21 00:26:46;;;;;;;14.77;2.80;;;16.40;88.00;;;;;;5115033;27;20084;-75
2021/10/21 00:29:12;;;;;;;10.85;2.42;;;16.50;88.10;;;;;;5114365;27;20379;-76
2021/10/21 00:31:38;;;;;;;15.32;2.88;;;16.50;88.10;;;;;;5116983;27;20027;-76
2021/10/21 00:34:04;;;;;;;12.48;2.80;;;16.50;88.10;;;;;;5116193;27;20027;-76
2021/10/21 00:36:29;;;;;;;17.38;2.40;;;16.60;88.10;;;;;;5112410;27;20374;-75
2021/10/21 00:38:56;;;;;;;8.50;1.65;;;16.60;88.00;;;;;;5115600;27;20047;-76
2021/10/21 00:41:22;;;;;;;14.68;2.17;;;16.60;87.90;;;;;;5118151;27;20643;-75
2021/10/21 00:43:48;;;;;;;17.83;2.47;;;16.60;87.90;;;;;;5115965;27;20076;-76
2021/10/21 00:46:15;;;;;;;12.55;2.78;;;16.60;88.00;;;;;;5113671;27;20476;-76
2021/10/21 00:48:42;;;;;;;13.88;2.78;;;16.70;88.00;;;;;;5115953;27;20043;-75
2021/10/21 00:51:13;;;;;;;18.15;2.72;;;16.70;88.00;;;;;;5117789;27;20031;-76
2021/10/21 00:53:40;;;;;;;15.05;2.40;;;16.60;88.10;;;;;;5113697;27;20398;-76
2021/10/21 00:56:08;;;;;;;11.35;2.47;;;16.70;88.20;;;;;;5115461;27;20459;-75
2021/10/21 00:58:34;;;;;;;11.63;2.55;;;16.70;88.30;;;;;;5114056;27;20046;-76
2021/10/21 01:01:00;;;;;;;17.00;3.00;;;16.70;88.10;;;;;;5109887;28;20030;-76
2021/10/21 01:03:29;;;;;;;10.93;2.65;;;16.70;88.30;;;;;;5116400;27;20028;-76
2021/10/21 01:05:55;;;;;;;14.32;2.70;;;16.70;88.40;;;;;;5116528;27;20039;-76
2021/10/21 01:08:20;;;;;;;14.25;2.63;;;16.70;88.40;;;;;;5115972;28;20027;-76
2021/10/21 01:10:47;;;;;;;11.65;2.60;;;16.70;88.70;;;;;;5108911;28;20030;-76
2021/10/21 01:13:12;;;;;;;14.95;2.65;;;16.70;89.00;;;;;;5098382;28;20036;-76
2021/10/21 01:15:38;;;;;;;11.75;3.13;;;16.70;89.00;;;;;;5098337;28;20035;-76
2021/10/21 01:18:04;;;;;;;13.60;3.05;;;16.70;89.20;;;;;;5109328;28;20074;-76
2021/10/21 01:20:30;;;;;;;14.90;3.47;;;16.70;89.50;;;;;;5111794;28;20084;-76
2021/10/21 01:22:56;;;;;;;15.40;3.42;;;16.70;89.60;;;;;;5114092;27;20447;-76
2021/10/21 01:25:21;;;;;;;13.18;2.88;;;16.70;89.90;;;;;;5124727;27;20131;-76
2021/10/21 01:27:49;;;;;;;16.95;3.15;;;16.70;90.00;;;;;;5112104;28;20073;-76
2021/10/21 01:30:19;;;;;;;23.20;3.67;;;16.80;90.10;;;;;;5114505;28;20039;-76
2021/10/21 01:32:46;;;;;;;14.73;3.47;;;16.80;90.20;;;;;;5121285;27;20386;-76
2021/10/21 01:35:11;;;;;;;10.32;3.13;;;16.80;90.20;;;;;;5111164;27;20105;-75
2021/10/21 01:37:37;;;;;;;18.00;4.00;;;16.80;90.30;;;;;;5121545;28;20494;-75
2021/10/21 01:40:04;;;;;;;12.95;4.22;;;16.80;90.40;;;;;;5115577;28;20084;-75
2021/10/21 01:42:29;;;;;;;14.88;3.95;;;16.80;90.50;;;;;;5112861;28;20020;-75
2021/10/21 01:44:55;;;;;;;8.57;3.35;;;16.80;90.50;;;;;;5105088;28;20394;-75
2021/10/21 01:47:21;;;;;;;12.68;4.47;;;16.80;90.60;;;;;;5101567;28;20446;-75
2021/10/21 01:49:47;;;;;;;15.13;4.15;;;16.70;90.70;;;;;;5125724;28;20102;-76
2021/10/21 01:52:14;;;;;;;14.25;4.15;;;16.70;90.80;;;;;;5118415;28;20818;-76
2021/10/21 01:54:39;;;;;;;13.63;4.20;;;16.80;90.80;;;;;;5116518;28;20084;-75
2021/10/21 01:57:08;;;;;;;16.00;5.25;;;16.80;90.90;;;;;;5116377;28;20024;-75
2021/10/21 01:59:34;;;;;;;10.05;3.88;;;16.70;90.90;;;;;;5117864;27;20050;-75
2021/10/21 02:01:59;;;;;;;14.85;4.70;;;16.80;90.80;;;;;;5125817;27;20019;-75
2021/10/21 02:04:25;;;;;;;14.15;5.03;;;16.80;90.80;;;;;;5128115;27;20100;-75
2021/10/21 02:06:50;;;;;;;10.80;4.05;;;16.80;90.90;;;;;;5101400;27;20024;-75
2021/10/21 02:09:16;;;;;;;11.20;3.70;;;16.80;90.90;;;;;;5115578;28;20046;-75
2021/10/21 02:11:42;;;;;;;11.05;3.70;;;16.80;90.80;;;;;;5113403;27;20493;-75
2021/10/21 02:14:07;;;;;;;17.35;4.38;;;16.70;90.70;;;;;;5114234;28;20039;-75
2021/10/21 02:16:33;;;;;;;15.32;3.40;;;16.80;90.70;;;;;;5116123;28;20374;-76
2021/10/21 02:18:58;;;;;;;7.25;2.90;;;16.70;90.70;;;;;;5112398;28;20399;-76
2021/10/21 02:21:24;;;;;;;11.27;3.35;;;16.70;90.60;;;;;;5131163;27;20454;-76
2021/10/21 02:23:50;;;;;;;8.40;2.28;;;16.70;90.50;;;;;;5123811;27;20031;-76
2021/10/21 02:26:15;;;;;;;12.13;2.42;;;16.70;90.40;;;;;;5114831;28;20504;-76
2021/10/21 02:28:41;;;;;;;4.97;2.10;;;16.70;90.20;;;;;;5115138;27;20462;-75
2021/10/21 02:31:06;;;;;;;7.15;1.85;;;16.70;90.10;;;;;;5116043;27;20068;-76
2021/10/21 02:33:32;;;;;;;8.10;1.73;;;16.70;89.80;;;;;;5116557;27;20439;-76
2021/10/21 02:35:58;;;;;;;4.72;1.60;;;16.60;89.30;;;;;;5116167;27;20073;-76
2021/10/21 02:38:23;;;;;;;4.65;1.20;;;16.60;89.10;;;;;;5114412;27;20111;-76
2021/10/21 02:40:49;;;;;;;6.43;2.00;;;16.70;88.60;;;;;;5115913;27;20089;-75
2021/10/21 02:43:15;;;;;;;14.75;2.55;;;16.50;87.90;;;;;;5113957;27;20126;-75
2021/10/21 02:45:41;;;;;;;13.95;2.97;;;16.50;88.10;;;;;;5115982;27;20027;-75
2021/10/21 02:48:07;;;;;;;7.65;2.28;;;16.40;88.70;;;;;;5116056;27;20069;-75
2021/10/21 02:50:33;;;;;;;8.57;2.90;;;16.40;88.90;;;;;;5114101;28;20107;-76
2021/10/21 02:52:59;;;;;;;7.25;2.25;;;16.40;89.00;;;;;;5112685;27;20020;-75
2021/10/21 02:55:24;;;;;;;6.00;2.03;;;16.40;89.10;;;;;;5128783;27;20436;-76
2021/10/21 02:57:50;;;;;;;5.60;1.65;;;16.40;89.10;;;;;;5124502;27;20035;-75
2021/10/21 03:00:16;;;;;;;8.57;2.05;;;16.40;89.10;;;;;;5115466;27;20042;-76
2021/10/21 03:02:42;;;;;;;2.03;1.10;;;16.40;89.20;;;;;;5115054;27;20062;-75
2021/10/21 03:05:08;;;;;;;4.45;1.30;;;16.30;88.00;;;;;;5128263;27;20034;-75
2021/10/21 03:07:34;;;;;;;7.28;2.42;;;16.30;87.60;;;;;;5127128;27;20494;-75
2021/10/21 03:10:00;;;;;;;5.13;1.33;;;16.10;88.00;;;;;;5114069;28;20114;-76
2021/10/21 03:12:25;;;;;;;4.93;0.80;;;16.00;88.50;;;;;;5115560;27;20102;-75
2021/10/21 03:14:51;;;;;;;1.08;0.60;;;15.90;89.00;;;;;;5126984;27;20023;-75
2021/10/21 03:17:17;;;;;;;4.18;1.33;;;15.80;89.40;;;;;;5127141;27;20042;-76
2021/10/21 03:19:42;;;;;;;4.93;1.02;;;15.70;89.60;;;;;;5115489;27;20043;-78
2021/10/21 03:22:08;;;;;;;1.52;0.68;;;15.70;89.50;;;;;;5119677;27;20034;-77
2021/10/21 03:24:34;;;;;;;1.10;0.80;;;15.50;89.60;;;;;;5119544;27;20104;-78
2021/10/21 03:26:59;;;;;;;6.13;0.73;;;15.50;89.80;;;;;;5107370;27;20020;-76
2021/10/21 03:29:25;;;;;;;0.50;0.50;;;15.40;90.00;;;;;;5127691;27;20027;-76
2021/10/21 03:31:53;;;;;;;0.98;0.55;;;15.40;90.00;;;;;;5111585;27;20058;-76
2021/10/21 03:34:19;;;;;;;1.60;0.75;;;15.20;90.00;;;;;;5126299;27;20023;-76
2021/10/21 03:36:48;;;;;;;1.70;0.77;;;15.20;90.10;;;;;;5121021;27;20492;-76
2021/10/21 03:39:14;;;;;;;1.63;1.00;;;15.20;90.10;;;;;;5131782;27;20058;-76
2021/10/21 03:41:40;;;;;;;0.85;0.68;;;15.10;90.10;;;;;;5127644;27;20019;-76
2021/10/21 03:44:06;;;;;;;2.60;0.80;;;15.10;90.20;;;;;;5124077;27;20031;-75
2021/10/21 03:46:31;;;;;;;1.50;0.73;;;15.00;90.30;;;;;;5117270;27;20023;-76
2021/10/21 03:48:57;;;;;;;2.50;0.55;;;15.00;90.30;;;;;;5127339;27;20462;-76
2021/10/21 03:51:22;;;;;;;0.70;0.70;;;15.00;90.20;;;;;;5115164;27;20020;-76
2021/10/21 03:53:48;;;;;;;2.17;0.50;;;15.00;90.20;;;;;;5115629;27;20050;-76
2021/10/21 03:56:14;;;;;;;0.68;0.68;;;15.00;90.20;;;;;;5123136;27;20031;-76
2021/10/21 03:58:39;;;;;;;2.00;0.63;;;14.90;90.20;;;;;;5112617;27;20118;-76
2021/10/21 04:01:05;;;;;;;1.75;0.75;;;14.80;90.20;;;;;;5114240;28;20023;-76
2021/10/21 04:03:31;;;;;;;11.25;0.80;;;14.80;90.20;;;;;;5114609;27;20066;-75
2021/10/21 04:05:56;;;;;;;0.55;0.43;;;14.80;90.60;;;;;;5113407;27;20589;-75
2021/10/21 04:08:22;;;;;;;0.60;0.52;;;14.80;90.20;;;;;;5123367;27;20023;-76
2021/10/21 04:10:48;;;;;;;4.72;0.60;;;14.70;90.30;;;;;;5129242;27;20052;-76
2021/10/21 04:13:14;;;;;;;0.22;0.22;;;14.70;90.30;;;;;;5119898;27;20377;-76
2021/10/21 04:15:41;;;;;;;7.38;1.85;;;14.70;90.30;;;;;;5115258;27;20031;-75
2021/10/21 04:18:06;;;;;;;5.15;1.08;;;14.80;90.20;;;;;;5114172;27;20040;-76
2021/10/21 04:20:32;;;;;;;4.40;1.00;;;14.70;90.20;;;;;;5112784;27;20115;-75
2021/10/21 04:22:58;;;;;;;3.35;0.98;;;14.80;90.10;;;;;;5114154;27;20024;-76
2021/10/21 04:25:24;;;;;;;2.92;0.70;;;14.80;90.20;;;;;;5114043;27;20132;-76
2021/10/21 04:27:49;;;;;;;3.20;0.90;;;14.90;90.10;;;;;;5113596;27;20030;-76
2021/10/21 04:30:15;;;;;;;2.10;0.85;;;14.90;90.00;;;;;;5113939;28;20034;-76
2021/10/21 04:32:42;;;;;;;2.70;0.95;;;15.10;90.00;;;;;;5115193;27;20363;-76
2021/10/21 04:35:08;;;;;;;3.50;1.00;;;15.10;89.80;;;;;;5102313;28;20435;-76
2021/10/21 04:37:34;;;;;;;6.43;1.10;;;15.20;89.80;;;;;;5114477;27;20483;-75
2021/10/21 04:39:59;;;;;;;4.45;1.38;;;15.20;89.50;;;;;;5112834;28;20042;-75
2021/10/21 04:42:25;;;;;;;3.53;0.95;;;15.30;89.40;;;;;;5117494;27;20093;-75
2021/10/21 04:44:51;;;;;;;2.13;0.80;;;15.40;89.20;;;;;;5117156;27;20072;-76
2021/10/21 04:47:17;;;;;;;6.97;1.00;;;15.40;89.00;;;;;;5112832;28;20027;-76
2021/10/21 04:49:44;;;;;;;3.58;0.93;;;15.40;88.60;;;;;;5115998;27;20018;-75
2021/10/21 04:52:10;;;;;;;3.83;0.90;;;15.40;88.50;;;;;;5119892;27;20040;-75
2021/10/21 04:54:36;;;;;;;3.55;0.88;;;15.40;88.60;;;;;;5126831;27;20019;-76
2021/10/21 04:57:02;;;;;;;1.55;0.80;;;15.50;89.00;;;;;;5127514;27;20037;-75
2021/10/21 04:59:27;;;;;;;4.13;0.93;;;15.40;89.30;;;;;;5123181;27;20123;-75
2021/10/21 05:01:53;;;;;;;2.20;0.75;;;15.40;89.60;;;;;;5111527;28;20031;-75
2021/10/21 05:04:19;;;;;;;5.78;1.00;;;15.40;89.80;;;;;;5127474;27;20023;-71
2021/10/21 05:06:44;;;;;;;1.17;0.55;;;15.40;89.80;;;;;;5119403;27;20057;-74
2021/10/21 05:09:10;;;;;;;3.00;0.95;;;15.30;90.10;;;;;;5122161;27;20063;-74
2021/10/21 05:11:35;;;;;;;2.80;1.10;;;15.30;90.30;;;;;;5112993;28;20111;-74
2021/10/21 05:14:04;;;;;;;4.32;1.00;;;15.30;90.30;;;;;;5112295;27;20027;-75
2021/10/21 05:16:29;;;;;;;2.30;0.63;;;15.40;90.30;;;;;;5112260;28;20118;-74
2021/10/21 05:18:55;;;;;;;7.80;0.80;;;15.30;90.30;;;;;;5117496;27;20114;-74
2021/10/21 05:21:21;;;;;;;1.02;0.60;;;15.30;90.30;;;;;;5111443;28;20511;-74
2021/10/21 05:23:46;;;;;;;2.58;0.77;;;15.30;90.30;;;;;;5110898;28;20039;-75
2021/10/21 05:26:12;;;;;;;2.15;0.80;;;15.30;90.30;;;;;;5115268;28;20031;-75
2021/10/21 05:28:40;;;;;;;5.90;1.10;;;15.20;90.10;;;;;;5131862;27;20066;-74
2021/10/21 05:31:06;;;;;;;8.25;1.30;;;15.20;89.30;;;;;;5114980;27;20038;-74
2021/10/21 05:33:35;;;;;;;8.18;1.50;;;15.10;88.20;;;;;;5117563;27;20027;-75
2021/10/21 05:36:03;;;;;;;11.80;1.60;;;15.00;88.10;;;;;;5117996;27;20444;-74
2021/10/21 05:38:29;;;;;;;9.52;2.40;;;15.00;88.50;;;;;;5122577;28;20052;-74
2021/10/21 05:40:54;;;;;;;10.45;1.55;;;14.80;88.20;;;;;;5113416;28;20067;-75
2021/10/21 05:43:22;;;;;;;6.07;1.85;;;14.80;88.20;;;;;;5112032;28;20066;-74
2021/10/21 05:45:48;;;;;;;10.20;1.65;;;14.70;88.40;;;;;;5112805;28;20454;-75
2021/10/21 05:48:15;;;;;;;9.70;1.48;;;14.70;88.80;;;;;;5113239;28;20092;-75
2021/10/21 05:50:41;;;;;;;15.75;2.15;;;14.60;89.00;;;;;;5124299;28;20024;-74
2021/10/21 05:53:06;;;;;;;4.70;1.13;;;14.50;89.20;;;;;;5113084;28;20042;-74
2021/10/21 05:55:32;;;;;;;9.23;1.20;;;14.50;89.30;;;;;;5115605;28;20036;-75
2021/10/21 05:57:58;;;;;;;16.27;1.90;;;14.50;89.40;;;;;;5121659;28;20080;-74
2021/10/21 06:00:24;;;;;;;13.00;1.77;;;14.50;89.60;;;;;;5110699;28;20479;-74
2021/10/21 06:02:49;;;;;;;12.05;1.42;;;14.40;89.60;;;;;;5106770;28;20020;-75
2021/10/21 06:05:15;;;;;;;13.25;1.90;;;14.40;89.80;;;;;;5115756;28;20027;-75
2021/10/21 06:07:41;;;;;;;14.30;2.05;;;14.40;89.90;;;;;;5122013;28;20031;-74
2021/10/21 06:10:07;;;;;;;10.57;1.90;;;14.40;90.10;;;;;;5113316;28;20024;-74
2021/10/21 06:12:32;;;;;;;12.77;1.25;;;14.40;90.10;;;;;;5119638;28;20035;-75
2021/10/21 06:15:01;;;;;;;5.00;1.13;;;14.30;90.20;;;;;;5121291;28;20016;-74
2021/10/21 06:17:27;;;;;;;13.77;2.13;;;14.30;90.20;;;;;;5112960;28;20035;-75
2021/10/21 06:19:52;;;;;;;7.85;1.40;;;14.20;90.10;;;;;;5122347;28;20020;-75
2021/10/21 06:22:18;;;;;;;12.00;1.50;;;14.30;90.30;;;;;;5111921;28;20879;-75
2021/10/21 06:24:45;;;;;;;3.97;1.00;;;14.30;90.20;;;;;;5111353;28;20368;-75
2021/10/21 06:27:11;;;;;;;5.38;0.95;;;14.30;90.20;;;;;;5111674;28;20027;-75
2021/10/21 06:29:39;;;;;;;8.38;1.45;;;14.30;90.30;;;;;;5123899;28;20024;-75
2021/10/21 06:32:06;;;;;;;6.30;1.27;;;14.20;90.20;;;;;;5119186;28;20382;-75
2021/10/21 06:34:32;;;;;;;5.97;1.70;;;14.30;90.30;;;;;;5117792;28;20023;-75
2021/10/21 06:36:57;;;;;;;2.65;0.70;;;14.20;90.10;;;;;;5120472;28;20016;-74
2021/10/21 06:39:23;;;;;;;6.97;1.10;;;14.20;90.00;;;;;;5115290;28;20059;-75
2021/10/21 06:41:49;;;;;;;6.30;1.27;;;14.20;90.10;;;;;;5110035;28;20382;-75
2021/10/21 06:44:15;;;;;;;6.40;1.55;;;14.20;90.10;;;;;;5097992;27;20062;-75
2021/10/21 06:46:40;;;;;;;9.60;1.55;;;14.20;90.00;;;;;;5126902;27;20024;-75
2021/10/21 06:49:06;;;;;;;9.13;1.23;;;14.20;90.00;;;;;;5125142;27;20024;-75
2021/10/21 06:51:32;;;;;;;7.47;1.15;;;14.20;90.00;;;;;;5097096;28;20028;-75
2021/10/21 06:53:57;;;;;;;9.13;1.48;;;14.20;89.90;;;;;;5113835;27;20031;-75
2021/10/21 06:56:23;;;;;;;5.80;1.25;;;14.20;89.90;;;;;;5122059;27;20077;-76
2021/10/21 06:58:48;;;;;;;5.38;1.25;;;14.20;89.70;;;;;;5114946;28;20043;-78
2021/10/21 07:01:15;;;;;;;4.68;1.05;;;14.20;89.50;;;;;;5118481;27;20019;-78
2021/10/21 07:03:40;;;;;;;6.88;1.25;;;14.20;89.70;;;;;;5119342;27;20036;-76
2021/10/21 07:06:06;;;;;;;2.65;0.73;;;14.10;89.70;;;;;;5124196;27;20027;-77
2021/10/21 07:08:32;;;;;;;4.03;1.27;;;14.10;89.50;;;;;;5125628;27;20076;-78
2021/10/21 07:11:02;;;;;;;7.75;1.52;;;14.10;89.10;;;;;;5108791;27;20075;-76
2021/10/21 07:13:28;;;;;;;7.28;1.05;;;14.10;89.00;;;;;;5119877;27;20031;-75
2021/10/21 07:15:54;;;;;;;3.88;0.95;;;14.10;89.00;;;;;;5110098;27;20478;-76
2021/10/21 07:18:19;;;;;;;0.50;0.50;;;14.00;89.00;;;;;;5120809;27;20046;-76
2021/10/21 07:20:45;;;;;;;0.20;0.20;;;14.00;89.10;;;;;;5110646;27;20026;-77
2021/10/21 07:23:11;;;;;;;0.40;0.40;;;13.90;89.30;;;;;;5120975;27;20028;-78
2021/10/21 07:25:36;;;;;;;5.72;0.98;;;13.90;89.70;;;;;;5123781;27;20110;-76
2021/10/21 07:28:03;;;;;;;2.83;0.52;;;13.90;90.00;;;;;;5121883;27;20031;-76
2021/10/21 07:30:29;;;;;;;9.18;1.40;;;13.80;90.00;;;;;;5122217;27;20068;-76
2021/10/21 07:32:57;;;;;;;2.60;1.42;;;13.70;90.20;;;;;;5128218;27;20089;-75
2021/10/21 07:35:24;;;;;;;4.15;1.08;;;13.70;90.30;;;;;;5117112;27;20099;-76
2021/10/21 07:37:50;;;;;;;7.57;1.30;;;13.60;90.50;;;;;;5126387;27;20047;-75
2021/10/21 07:40:15;;;;;;;13.25;2.10;;;13.50;90.60;;;;;;5129075;27;20085;-77
2021/10/21 07:42:42;;;;;;;4.20;1.17;;;13.50;90.80;;;;;;5125637;27;20031;-76
2021/10/21 07:45:09;;;;;;;8.75;1.48;;;13.50;90.90;;;;;;5114185;27;20074;-75
2021/10/21 07:47:35;;;;;;;3.00;0.90;;;13.50;91.00;;;;;;5115179;27;20498;-75
2021/10/21 07:50:05;;;;;;;1.25;0.77;;;13.50;91.10;;;;;;5118512;27;20023;-75
2021/10/21 07:52:31;;;;;;;2.17;0.65;;;13.30;91.20;;;;;;5126251;27;20363;-75
2021/10/21 07:54:56;;;;;;;2.20;0.57;;;13.40;91.30;;;;;;5115870;27;20031;-75
2021/10/21 07:57:22;;;;;;;8.65;1.23;;;13.30;91.40;;;;;;5115844;27;20042;-75
2021/10/21 07:59:48;;;;;;;13.43;2.03;;;13.40;91.50;;;;;;5117894;27;20035;-75
2021/10/21 08:02:15;;;;;;;2.97;1.20;;;13.40;91.50;;;;;;5109455;27;20039;-76
2021/10/21 08:04:41;;;;;;;5.68;2.15;;;13.40;91.40;;;;;;5105520;28;20032;-76
2021/10/21 08:07:07;;;;;;;8.35;1.40;;;13.40;91.20;;;;;;5101888;28;20039;-75
2021/10/21 08:09:33;;;;;;;8.00;1.45;;;13.50;91.40;;;;;;5120164;27;20019;-76
2021/10/21 08:12:00;;;;;;;7.85;1.67;;;13.50;91.30;;;;;;5113028;27;20387;-76
2021/10/21 08:14:26;;;;;;;7.63;2.17;;;13.60;91.40;;;;;;5114317;27;20423;-76
2021/10/21 08:16:52;;;;;;;21.50;2.00;;;13.60;91.50;;;;;;5113643;27;20122;-76
2021/10/21 08:19:18;;;;;;;5.78;1.60;;;13.70;91.50;;;;;;5110862;28;20091;-77
2021/10/21 08:21:46;;;;;;;6.53;1.48;;;13.70;91.20;;;;;;5120642;27;20404;-76
2021/10/21 08:24:12;;;;;;;5.57;1.25;;;13.70;91.30;;;;;;5127579;27;20044;-76
2021/10/21 08:26:38;;;;;;;4.03;1.08;;;13.70;91.00;;;;;;5118934;27;20027;-76
2021/10/21 08:29:04;;;;;;;3.72;0.98;;;13.80;90.90;;;;;;5116305;27;20139;-77
2021/10/21 08:31:29;;;;;;;5.78;0.80;;;13.80;90.60;;;;;;5111296;27;20403;-76
2021/10/21 08:33:58;;;;;;;18.83;2.95;;;13.70;90.60;;;;;;5122046;27;20118;-76
2021/10/21 08:36:23;;;;;;;5.90;0.93;;;13.80;90.50;;;;;;5130976;27;20035;-77
2021/10/21 08:38:50;;;;;;;2.63;0.73;;;13.90;90.50;;;;;;5132559;27;20402;-77
2021/10/21 08:41:17;;;;;;;13.32;1.95;;;13.80;90.40;;;;;;5116734;27;20077;-77
2021/10/21 08:43:45;;;;;;;10.15;1.38;;;13.90;90.40;;;;;;5120425;27;20019;-74
2021/10/21 08:46:13;;;;;;;2.83;0.80;;;13.90;90.50;;;;;;5125187;27;20035;-78
2021/10/21 08:48:44;;;;;;;4.60;0.82;;;13.90;90.30;;;;;;5120690;27;20027;-77
2021/10/21 08:51:10;;;;;;;7.07;1.25;;;13.90;90.10;;;;;;5121182;27;20023;-78
2021/10/21 08:53:36;;;;;;;3.85;0.57;;;13.90;90.00;;;;;;5111380;27;20364;-76
2021/10/21 08:56:02;;;;;;;2.53;0.60;;;13.90;90.00;;;;;;5129970;27;20076;-76
2021/10/21 08:58:28;;;;;;;8.75;2.00;;;14.00;89.70;;;;;;5110930;27;20131;-76
2021/10/21 09:01:02;;;;;;;6.68;1.33;;;13.90;89.60;;;;;;5103072;27;20043;-76
2021/10/21 09:04:01;;;;;;;8.30;1.20;;;13.90;89.00;;;;;;5107088;27;20047;-76
2021/10/21 09:08:56;;;;;;;10.63;1.55;;;13.90;89.40;;;;;;5110032;27;20027;-75
2021/10/21 09:11:23;;;;;;;4.53;1.30;;;14.00;89.20;;;;;;5113384;27;20054;-76
2021/10/21 09:14:07;;;;;;;4.95;1.05;;;14.00;89.30;;;;;;5115327;27;20027;-76
2021/10/21 09:16:33;;;;;;;10.75;1.10;;;13.90;89.40;;;;;;5098795;28;20078;-76
2021/10/21 09:19:11;;;;;;;4.78;1.08;;;13.90;89.10;;;;;;5106263;27;20478;-76
2021/10/21 09:21:41;;;;;;;5.85;1.60;;;14.00;89.20;;;;;;5108393;28;20479;-76
2021/10/21 09:24:30;;;;;;;6.75;1.33;;;13.90;88.40;;;;;;5090092;28;20505;-76
2021/10/21 09:27:11;;;;;;;9.73;1.70;;;13.90;88.70;;;;;;5111818;27;20062;-76
2021/10/21 09:29:48;;;;;;;7.75;1.33;;;13.90;88.80;;;;;;5111695;27;20028;-76
2021/10/21 09:32:21;;;;;;;4.50;1.73;;;14.00;89.00;;;;;;5115068;27;20120;-76
2021/10/21 09:34:56;;;;;;;11.13;1.83;;;14.00;88.80;;;;;;5114753;28;20034;-76
2021/10/21 09:37:34;;;;;;;17.48;1.58;;;14.00;88.70;;;;;;5111797;28;20078;-76
2021/10/21 09:40:10;;;;;;;5.88;1.23;;;13.90;88.70;;;;;;5112740;28;20035;-76
2021/10/21 09:42:39;;;;;;;7.97;1.75;;;14.00;88.90;;;;;;5122427;28;20023;-76
2021/10/21 09:45:14;;;;;;;8.77;1.45;;;14.00;87.70;;;;;;5120916;28;20038;-76
2021/10/21 09:47:45;;;;;;;12.40;1.10;;;14.00;87.50;;;;;;5119948;28;20019;-76
2021/10/21 09:50:20;;;;;;;4.82;1.10;;;14.10;88.00;;;;;;5119154;28;20070;-76
2021/10/21 09:53:10;;;;;;;13.45;1.77;;;14.10;88.00;;;;;;5110831;28;20024;-76
2021/10/21 09:55:39;;;;;;;14.55;1.75;;;14.10;86.60;;;;;;5126653;28;20106;-76
2021/10/21 09:58:07;;;;;;;4.28;0.88;;;14.10;86.80;;;;;;5129371;28;20027;-76
2021/10/21 10:00:36;;;;;;;5.82;1.38;;;14.20;86.60;;;;;;5113728;28;20032;-76
2021/10/21 10:03:10;;;;;;;4.38;1.05;;;14.20;86.90;;;;;;5112123;28;20031;-76
2021/10/21 10:05:38;;;;;;;5.35;0.95;;;14.20;87.10;;;;;;5123258;28;20088;-77
2021/10/21 10:08:08;;;;;;;8.07;1.67;;;14.20;87.40;;;;;;5112505;28;20118;-75
2021/10/21 10:10:35;;;;;;;3.88;0.80;;;14.20;87.20;;;;;;5112785;28;20084;-76
2021/10/21 10:13:01;;;;;;;9.00;1.48;;;14.20;87.50;;;;;;5118147;28;20038;-75
2021/10/21 10:15:28;;;;;;;10.85;1.55;;;14.20;87.00;;;;;;5108731;28;20031;-76
2021/10/21 10:17:55;;;;;;;5.28;0.95;;;14.30;86.40;;;;;;5118787;28;20023;-77
2021/10/21 10:20:25;;;;;;;8.00;1.13;;;14.20;86.60;;;;;;5109960;27;20027;-77
2021/10/21 10:22:52;;;;;;;6.07;0.95;;;14.20;87.10;;;;;;5111393;27;20044;-77
2021/10/21 10:25:21;;;;;;;1.75;0.80;;;14.20;87.10;;;;;;5123254;27;20027;-77
2021/10/21 10:27:55;;;;;;;5.32;1.35;;;14.20;87.30;;;;;;5115864;27;20030;-77
2021/10/21 10:30:41;;;;;;;8.82;1.27;;;14.20;87.00;;;;;;5099569;28;20088;-75
2021/10/21 10:33:07;;;;;;;7.47;1.63;;;14.20;87.10;;;;;;5122893;27;20015;-76
2021/10/21 10:35:36;;;;;;;9.95;2.17;;;14.20;86.10;;;;;;5129965;27;20100;-77
2021/10/21 10:38:04;;;;;;;9.10;1.42;;;14.20;85.90;;;;;;5102264;27;20502;-75
2021/10/21 10:40:46;;;;;;;16.75;1.90;;;14.20;86.00;;;;;;5125091;27;20390;-75
2021/10/21 10:43:14;;;;;;;4.30;1.60;;;14.20;86.20;;;;;;5113240;27;20114;-75
2021/10/21 10:45:49;;;;;;;7.63;1.45;;;14.20;86.60;;;;;;5124372;27;20083;-74
2021/10/21 10:48:16;;;;;;;16.98;2.55;;;14.20;85.50;;;;;;5112259;27;20036;-76
2021/10/21 10:50:44;;;;;;;7.22;1.48;;;14.20;85.90;;;;;;5116153;27;20411;-77
2021/10/21 10:53:11;;;;;;;9.40;1.65;;;14.20;86.30;;;;;;5116890;27;20040;-76
2021/10/21 10:55:49;;;;;;;5.13;0.65;;;14.20;85.60;;;;;;5127701;27;20027;-77
2021/10/21 10:58:15;;;;;;;16.10;1.60;;;14.20;86.00;;;;;;5115489;27;20036;-76
2021/10/21 11:00:49;;;;;;;5.40;1.33;;;14.20;86.00;;;;;;5110457;27;20479;-76
2021/10/21 11:03:43;;;;;;;7.20;1.45;;;14.20;85.80;;;;;;5112920;27;20485;-75
2021/10/21 11:06:10;;;;;;;9.70;1.75;;;14.20;85.30;;;;;;5119997;27;20445;-75
2021/10/21 11:08:57;;;;;;;12.15;1.23;;;14.20;85.50;;;;;;5124427;27;20035;-75
2021/10/21 11:11:42;;;;;;;7.38;1.58;;;14.20;85.10;;;;;;5125889;27;20034;-75
2021/10/21 11:14:13;;;;;;;4.15;1.08;;;14.10;84.40;;;;;;5112179;27;20123;-74
2021/10/21 11:16:44;;;;;;;2.83;0.75;;;14.20;84.90;;;;;;5117792;27;20027;-75
2021/10/21 11:19:13;;;;;;;6.43;1.00;;;14.20;85.30;;;;;;5123294;27;20043;-75
2021/10/21 11:21:54;;;;;;;6.15;1.20;;;14.10;85.20;;;;;;5114224;27;20076;-75
2021/10/21 11:24:54;;;;;;;4.93;0.93;;;14.10;85.30;;;;;;5119851;27;20031;-75
2021/10/21 11:27:25;;;;;;;4.55;1.00;;;14.10;84.40;;;;;;5112410;27;20024;-75
2021/10/21 11:29:52;;;;;;;7.40;1.45;;;14.10;84.70;;;;;;5125572;27;20030;-75
2021/10/21 11:32:19;;;;;;;3.50;1.20;;;14.10;83.00;;;;;;5115817;27;20087;-75
2021/10/21 11:34:50;;;;;;;5.15;1.23;;;14.10;81.90;;;;;;5118847;27;20106;-75
2021/10/21 11:37:36;;;;;;;7.43;0.75;;;14.00;81.30;;;;;;5115126;27;20052;-75
2021/10/21 11:40:03;;;;;;;2.60;0.75;;;14.00;82.90;;;;;;5117127;27;20035;-76
2021/10/21 11:42:29;;;;;;;3.97;1.60;;;14.00;82.50;;;;;;5114633;27;20034;-75
2021/10/21 11:45:25;;;;;;;2.33;0.57;;;13.90;81.40;;;;;;5112862;27;20036;-75
2021/10/21 11:47:55;;;;;;;2.05;0.80;;;13.90;83.50;;;;;;5106665;27;20488;-74
2021/10/21 11:50:49;;;;;;;3.40;0.77;;;13.90;83.50;;;;;;5121366;27;20486;-74
2021/10/21 11:53:16;;;;;;;1.85;0.57;;;13.90;82.40;;;;;;5121497;27;20058;-74
2021/10/21 11:55:43;;;;;;;3.15;0.80;;;13.90;83.00;;;;;;5121808;27;20031;-74
2021/10/21 11:58:23;;;;;;;6.25;1.00;;;13.80;83.50;;;;;;5106779;27;20137;-74
2021/10/21 12:00:54;;;;;;;6.65;0.95;;;13.80;82.50;;;;;;5113934;27;20048;-74
2021/10/21 12:03:30;;;;;;;12.63;1.73;;;13.80;81.90;;;;;;5102076;27;20119;-74
2021/10/21 12:05:57;;;;;;;2.92;1.15;;;13.80;81.90;;;;;;5111051;27;20080;-74
2021/10/21 12:08:22;;;;;;;6.63;1.52;;;13.90;82.90;;;;;;5110315;27;20059;-74
2021/10/21 12:10:58;;;;;;;2.47;0.60;;;13.90;82.50;;;;;;5117360;27;20066;-74
2021/10/21 12:13:27;;;;;;;12.75;1.60;;;13.90;82.00;;;;;;5117386;27;20031;-75
2021/10/21 12:15:55;;;;;;;4.00;0.70;;;14.00;82.30;;;;;;5101771;27;21265;-76
2021/10/21 12:18:23;;;;;;;4.05;0.98;;;13.90;82.20;;;;;;5124919;27;20035;-78
2021/10/21 12:20:55;;;;;;;4.32;1.15;;;14.00;82.00;;;;;;5125716;27;20382;-73
2021/10/21 12:23:29;;;;;;;9.10;1.48;;;13.90;81.80;;;;;;5110817;27;20027;-74
2021/10/21 12:26:05;;;;;;;10.55;2.15;;;14.00;82.00;;;;;;5108732;27;20063;-74
2021/10/21 12:28:48;;;;;;;5.22;1.33;;;13.90;82.10;;;;;;5096668;27;20098;-75
2021/10/21 12:31:21;;;;;;;12.88;2.00;;;13.90;81.80;;;;;;5104232;27;20436;-76
2021/10/21 12:34:14;;;;;;;3.72;0.68;;;13.90;82.70;;;;;;5105758;27;20058;-74
2021/10/21 12:36:52;;;;;;;9.27;0.85;;;13.90;82.70;;;;;;5103285;27;20046;-75
2021/10/21 12:39:30;;;;;;;18.42;1.42;;;13.90;82.70;;;;;;5122814;27;20101;-74
2021/10/21 12:42:08;;;;;;;9.18;1.45;;;13.90;80.70;;;;;;5105641;27;20035;-74
2021/10/21 12:44:40;;;;;;;5.40;1.05;;;13.90;80.20;;;;;;5104464;27;20039;-75
2021/10/21 12:47:20;;;;;;;6.47;0.87;;;13.90;79.20;;;;;;5119962;27;20096;-74
2021/10/21 12:50:05;;;;;;;10.73;1.77;;;13.90;80.40;;;;;;5100762;27;20272;-75